createdAt,value
2024-01-19T00:00:52.168Z,4.63
2024-01-19T00:03:18.873Z,4.90
2024-01-19T00:05:45.780Z,5.30
2024-01-19T00:08:12.626Z,4.63
2024-01-19T00:10:39.469Z,4.82
2024-01-19T00:13:06.282Z,4.95
2024-01-19T00:15:39.431Z,5.25
2024-01-19T00:18:09.162Z,4.85
2024-01-19T00:20:35.927Z,5.03
2024-01-19T00:23:02.650Z,4.60
2024-01-19T00:25:29.274Z,4.75
2024-01-19T00:27:56.057Z,4.32
2024-01-19T00:30:22.756Z,5.00
2024-01-19T00:32:49.518Z,5.05
2024-01-19T00:35:17.912Z,4.80
2024-01-19T00:37:46.278Z,4.50
2024-01-19T00:40:13.410Z,4.43
2024-01-19T00:42:41.641Z,4.40
2024-01-19T00:45:09.991Z,4.43
2024-01-19T00:47:37.092Z,4.22
2024-01-19T00:50:05.917Z,3.63
2024-01-19T00:52:32.593Z,4.00
2024-01-19T00:54:59.215Z,4.38
2024-01-19T00:57:25.923Z,4.40
2024-01-19T00:59:52.701Z,4.10
2024-01-19T01:02:20.589Z,4.15
2024-01-19T01:04:50.141Z,4.85
2024-01-19T01:07:16.833Z,4.82
2024-01-19T01:09:43.557Z,4.03
2024-01-19T01:12:10.327Z,4.93
2024-01-19T01:14:37.133Z,3.78
2024-01-19T01:17:04.097Z,4.05
2024-01-19T01:19:30.930Z,3.80
2024-01-19T01:21:57.672Z,4.38
2024-01-19T01:24:24.438Z,3.97
2024-01-19T01:26:51.223Z,4.15
2024-01-19T01:29:18.122Z,3.67
2024-01-19T01:31:44.934Z,3.88
2024-01-19T01:34:11.686Z,4.28
2024-01-19T01:36:38.433Z,4.07
2024-01-19T01:39:05.279Z,3.78
2024-01-19T01:41:31.982Z,3.80
2024-01-19T01:43:58.648Z,3.83
2024-01-19T01:46:25.787Z,3.78
2024-01-19T01:48:52.898Z,3.90
2024-01-19T01:51:19.789Z,4.25
2024-01-19T01:53:46.685Z,3.65
2024-01-19T01:56:13.615Z,3.83
2024-01-19T01:58:40.688Z,3.80
2024-01-19T02:01:07.603Z,3.78
2024-01-19T02:03:35.793Z,4.25
2024-01-19T02:06:02.960Z,3.67
2024-01-19T02:08:29.893Z,3.97
2024-01-19T02:10:56.750Z,3.70
2024-01-19T02:13:23.519Z,4.30
2024-01-19T02:15:50.095Z,4.40
2024-01-19T02:18:16.924Z,3.65
2024-01-19T02:20:43.714Z,3.80
2024-01-19T02:23:14.753Z,3.78
2024-01-19T02:25:41.547Z,2.95
2024-01-19T02:28:08.677Z,4.57
2024-01-19T02:30:35.903Z,3.95
2024-01-19T02:33:04.021Z,3.35
2024-01-19T02:35:30.786Z,3.80
2024-01-19T02:37:57.681Z,3.95
2024-01-19T02:40:24.372Z,3.95
2024-01-19T02:42:51.020Z,4.10
2024-01-19T02:45:17.757Z,3.95
2024-01-19T02:47:44.541Z,4.18
2024-01-19T02:50:11.420Z,3.78
2024-01-19T02:52:38.187Z,3.20
2024-01-19T02:55:05.988Z,3.83
2024-01-19T02:57:32.697Z,3.65
2024-01-19T03:00:00.546Z,3.55
2024-01-19T03:02:27.470Z,4.05
2024-01-19T03:04:54.268Z,3.97
2024-01-19T03:07:20.964Z,3.65
2024-01-19T03:09:47.788Z,3.42
2024-01-19T03:12:14.514Z,3.60
2024-01-19T03:14:41.908Z,3.40
2024-01-19T03:17:08.526Z,4.03
2024-01-19T03:19:35.349Z,3.85
2024-01-19T03:22:02.041Z,4.18
2024-01-19T03:24:30.470Z,3.97
2024-01-19T03:26:57.162Z,3.00
2024-01-19T03:29:24.621Z,4.20
2024-01-19T03:31:51.379Z,4.10
2024-01-19T03:34:18.050Z,3.88
2024-01-19T03:36:44.683Z,3.38
2024-01-19T03:39:11.422Z,3.58
2024-01-19T03:41:38.126Z,3.70
2024-01-19T03:44:04.865Z,3.40
2024-01-19T03:46:31.582Z,3.33
2024-01-19T03:48:58.263Z,3.60
2024-01-19T03:51:24.896Z,3.67
2024-01-19T03:53:51.981Z,4.00
2024-01-19T03:56:19.779Z,3.78
2024-01-19T03:58:46.429Z,3.58
2024-01-19T04:01:13.435Z,3.58
2024-01-19T04:03:40.766Z,3.45
2024-01-19T04:06:07.641Z,3.72
2024-01-19T04:08:34.512Z,2.97
2024-01-19T04:11:01.202Z,3.55
2024-01-19T04:13:27.869Z,3.38
2024-01-19T04:15:54.484Z,3.45
2024-01-19T04:18:22.010Z,3.25
2024-01-19T04:20:48.718Z,3.20
2024-01-19T04:23:17.480Z,3.45
2024-01-19T04:25:44.292Z,3.08
2024-01-19T04:28:10.954Z,3.17
2024-01-19T04:30:37.565Z,3.40
2024-01-19T04:33:04.530Z,2.97
2024-01-19T04:35:31.221Z,3.35
2024-01-19T04:37:58.084Z,2.97
2024-01-19T04:40:25.035Z,3.70
2024-01-19T04:42:51.705Z,3.10
2024-01-19T04:45:18.374Z,3.00
2024-01-19T04:47:45.143Z,3.55
2024-01-19T04:50:11.809Z,3.13
2024-01-19T04:52:38.459Z,2.90
2024-01-19T04:55:05.433Z,3.65
2024-01-19T04:57:32.108Z,3.78
2024-01-19T04:59:58.836Z,2.97
2024-01-19T05:02:25.933Z,3.58
2024-01-19T05:04:52.734Z,2.90
2024-01-19T05:07:19.507Z,3.35
2024-01-19T05:09:47.158Z,3.17
2024-01-19T05:12:14.050Z,3.05
2024-01-19T05:14:40.693Z,3.42
2024-01-19T05:17:07.354Z,3.10
2024-01-19T05:19:34.063Z,3.13
2024-01-19T05:22:00.793Z,3.17
2024-01-19T05:24:27.401Z,3.58
2024-01-19T05:26:54.298Z,3.25
2024-01-19T05:29:21.056Z,3.50
2024-01-19T05:31:47.745Z,3.20
2024-01-19T05:34:15.656Z,3.28
2024-01-19T05:36:43.193Z,3.45
2024-01-19T05:39:09.912Z,3.15
2024-01-19T05:41:36.605Z,3.20
2024-01-19T05:44:03.346Z,3.03
2024-01-19T05:46:29.991Z,3.00
2024-01-19T05:48:58.363Z,3.72
2024-01-19T05:51:25.706Z,2.90
2024-01-19T05:53:52.445Z,2.85
2024-01-19T05:56:19.155Z,3.33
2024-01-19T05:58:45.840Z,3.00
2024-01-19T06:01:12.813Z,3.00
2024-01-19T06:03:40.095Z,2.90
2024-01-19T06:06:06.992Z,3.03
2024-01-19T06:08:34.053Z,2.70
2024-01-19T06:11:00.845Z,3.00
2024-01-19T06:13:27.548Z,2.80
2024-01-19T06:15:54.306Z,3.25
2024-01-19T06:18:21.051Z,3.30
2024-01-19T06:20:47.811Z,2.92
2024-01-19T06:23:14.894Z,3.22
2024-01-19T06:25:42.045Z,3.53
2024-01-19T06:28:08.897Z,2.60
2024-01-19T06:30:35.671Z,3.08
2024-01-19T06:33:06.656Z,3.30
2024-01-19T06:35:33.729Z,3.15
2024-01-19T06:38:00.587Z,2.85
2024-01-19T06:40:27.370Z,2.97
2024-01-19T06:42:54.154Z,3.03
2024-01-19T06:45:21.146Z,2.33
2024-01-19T06:47:47.996Z,2.85
2024-01-19T06:50:15.625Z,3.05
2024-01-19T06:52:42.246Z,3.00
2024-01-19T06:55:09.402Z,3.95
2024-01-19T06:57:36.048Z,3.10
2024-01-19T07:00:02.997Z,3.10
2024-01-19T07:02:29.666Z,3.58
2024-01-19T07:04:56.293Z,3.78
2024-01-19T07:07:22.953Z,3.28
2024-01-19T07:09:49.673Z,4.13
2024-01-19T07:12:18.319Z,2.83
2024-01-19T07:14:45.238Z,3.22
2024-01-19T07:17:15.381Z,2.63
2024-01-19T07:19:43.488Z,3.17
2024-01-19T07:22:10.538Z,3.40
2024-01-19T07:24:37.613Z,3.75
2024-01-19T07:27:05.893Z,3.38
2024-01-19T07:29:33.088Z,3.60
2024-01-19T07:32:00.991Z,3.70
2024-01-19T07:34:27.897Z,4.00
2024-01-19T07:36:54.705Z,3.00
2024-01-19T07:39:24.901Z,3.28
2024-01-19T07:41:54.708Z,3.30
2024-01-19T07:44:21.657Z,3.67
2024-01-19T07:46:49.477Z,3.90
2024-01-19T07:49:21.998Z,3.40
2024-01-19T07:51:50.257Z,3.60
2024-01-19T07:54:18.878Z,4.55
2024-01-19T07:56:45.651Z,3.55
2024-01-19T07:59:12.388Z,3.55
2024-01-19T08:01:40.547Z,3.45
2024-01-19T08:04:07.322Z,3.78
2024-01-19T08:06:34.233Z,3.63
2024-01-19T08:09:01.042Z,4.15
2024-01-19T08:11:27.817Z,3.17
2024-01-19T08:13:54.436Z,3.63
2024-01-19T08:16:21.196Z,3.65
2024-01-19T08:18:47.999Z,4.25
2024-01-19T08:21:14.817Z,3.80
2024-01-19T08:23:41.479Z,4.38
2024-01-19T08:26:08.366Z,4.80
2024-01-19T08:28:35.149Z,4.07
2024-01-19T08:31:01.842Z,4.15
2024-01-19T08:33:28.680Z,4.00
2024-01-19T08:35:55.463Z,3.67
2024-01-19T08:38:22.107Z,3.50
2024-01-19T08:40:48.894Z,2.92
2024-01-19T08:43:15.733Z,3.65
2024-01-19T08:45:42.696Z,3.20
2024-01-19T08:48:09.736Z,3.38
2024-01-19T08:50:36.596Z,3.38
2024-01-19T08:53:04.193Z,3.05
2024-01-19T08:55:31.026Z,3.05
2024-01-19T08:57:57.738Z,3.88
2024-01-19T09:00:24.435Z,3.00
2024-01-19T09:03:03.706Z,3.55
2024-01-19T09:05:31.937Z,3.78
2024-01-19T09:07:58.983Z,3.30
2024-01-19T09:10:25.781Z,3.05
2024-01-19T09:12:52.569Z,3.80
2024-01-19T09:15:19.359Z,3.22
2024-01-19T09:17:46.135Z,3.08
2024-01-19T09:20:13.332Z,3.72
2024-01-19T09:22:40.261Z,4.03
2024-01-19T09:25:07.382Z,3.65
2024-01-19T09:27:34.395Z,4.30
2024-01-19T09:30:01.275Z,3.85
2024-01-19T09:32:28.222Z,3.42
2024-01-19T09:34:55.072Z,4.00
2024-01-19T09:37:21.798Z,3.97
2024-01-19T09:39:48.447Z,3.58
2024-01-19T09:42:28.242Z,3.38
2024-01-19T09:45:06.791Z,3.28
2024-01-19T09:48:03.149Z,3.47
2024-01-19T09:50:35.982Z,3.58
2024-01-19T09:53:06.198Z,3.60
2024-01-19T09:55:32.994Z,4.10
2024-01-19T09:57:59.646Z,3.60
2024-01-19T10:00:26.715Z,3.10
2024-01-19T10:03:00.093Z,3.13
2024-01-19T10:05:29.013Z,3.10
2024-01-19T10:07:58.940Z,2.97
2024-01-19T10:10:27.311Z,2.80
2024-01-19T10:12:54.126Z,3.83
2024-01-19T10:15:20.934Z,3.22
2024-01-19T10:17:47.838Z,2.72
2024-01-19T10:20:16.582Z,3.33
2024-01-19T10:22:43.658Z,3.08
2024-01-19T10:25:15.143Z,2.92
2024-01-19T10:27:43.404Z,2.60
2024-01-19T10:30:11.371Z,3.08
2024-01-19T10:32:40.377Z,4.68
2024-01-19T10:35:16.090Z,2.83
2024-01-19T10:37:43.323Z,2.72
2024-01-19T10:40:20.359Z,2.78
2024-01-19T10:42:49.497Z,3.00
2024-01-19T10:45:16.627Z,2.92
2024-01-19T10:47:44.866Z,3.08
2024-01-19T10:50:16.046Z,3.10
2024-01-19T10:52:47.555Z,3.00
2024-01-19T10:57:45.548Z,3.63
2024-01-19T11:00:29.497Z,2.80
2024-01-19T11:02:58.386Z,2.55
2024-01-19T11:05:26.077Z,2.88
2024-01-19T11:07:54.335Z,3.80
2024-01-19T11:10:22.100Z,2.97
2024-01-19T11:13:01.214Z,2.92
2024-01-19T11:15:49.083Z,2.90
2024-01-19T11:18:16.435Z,2.67
2024-01-19T11:20:43.462Z,2.85
2024-01-19T11:23:10.669Z,3.28
2024-01-19T11:25:52.700Z,2.90
2024-01-19T11:28:31.052Z,2.45
2024-01-19T11:31:18.704Z,2.58
2024-01-19T11:33:45.671Z,2.92
2024-01-19T11:36:33.454Z,2.63
2024-01-19T11:39:00.481Z,2.63
2024-01-19T11:41:33.972Z,2.60
2024-01-19T11:44:02.145Z,2.83
2024-01-19T11:46:48.358Z,3.10
2024-01-19T11:49:30.575Z,2.47
2024-01-19T11:52:02.732Z,2.50
2024-01-19T11:54:33.434Z,2.90
2024-01-19T11:57:19.990Z,2.72
2024-01-19T11:59:47.513Z,4.25
2024-01-19T12:02:24.639Z,2.35
2024-01-19T12:04:53.053Z,2.67
2024-01-19T12:07:21.573Z,2.67
2024-01-19T12:10:07.798Z,2.92
2024-01-19T12:12:35.282Z,2.60
2024-01-19T12:17:41.600Z,2.63
2024-01-19T12:20:11.151Z,2.65
2024-01-19T12:22:38.451Z,2.88
2024-01-19T12:25:15.122Z,3.05
2024-01-19T12:27:42.079Z,3.10
2024-01-19T12:30:16.837Z,2.90
2024-01-19T12:32:45.060Z,3.00
2024-01-19T12:35:14.707Z,2.60
2024-01-19T12:37:42.469Z,3.50
2024-01-19T12:40:20.089Z,3.22
2024-01-19T12:42:47.120Z,2.45
2024-01-19T12:45:15.468Z,2.90
2024-01-19T12:47:44.116Z,2.78
2024-01-19T12:50:16.808Z,2.40
2024-01-19T12:52:49.190Z,2.90
2024-01-19T12:55:15.847Z,3.53
2024-01-19T12:57:50.367Z,3.28
2024-01-19T13:00:17.774Z,2.70
2024-01-19T13:02:44.688Z,2.80
2024-01-19T13:05:43.832Z,2.75
2024-01-19T13:08:11.533Z,3.70
2024-01-19T13:10:38.978Z,2.60
2024-01-19T13:13:10.930Z,3.58
2024-01-19T13:15:38.395Z,2.42
2024-01-19T13:18:12.601Z,2.60
2024-01-19T13:20:47.102Z,2.38
2024-01-19T13:23:14.261Z,2.63
2024-01-19T13:25:41.146Z,2.78
2024-01-19T13:28:08.194Z,2.70
2024-01-19T13:30:35.380Z,2.63
2024-01-19T13:33:02.879Z,3.25
2024-01-19T13:35:30.399Z,2.28
2024-01-19T13:37:57.868Z,3.83
2024-01-19T13:40:25.132Z,2.70
2024-01-19T13:42:52.703Z,2.90
2024-01-19T13:45:19.576Z,2.53
2024-01-19T13:47:46.266Z,3.25
2024-01-19T13:50:13.115Z,1.67
2024-01-19T13:52:40.635Z,1.60
2024-01-19T13:55:07.896Z,2.45
2024-01-19T13:57:34.666Z,2.28
2024-01-19T14:00:01.267Z,1.73
2024-01-19T14:02:29.121Z,2.03
2024-01-19T14:04:57.947Z,1.85
2024-01-19T14:07:25.993Z,2.45
2024-01-19T14:09:53.258Z,2.45
2024-01-19T14:12:20.355Z,2.33
2024-01-19T14:14:48.946Z,2.42
2024-01-19T14:17:15.787Z,2.08
2024-01-19T14:19:42.746Z,1.88
2024-01-19T14:22:09.502Z,1.70
2024-01-19T14:24:36.312Z,2.05
2024-01-19T14:27:03.465Z,1.80
2024-01-19T14:29:32.342Z,2.10
2024-01-19T14:32:01.636Z,1.88
2024-01-19T14:34:36.014Z,2.40
2024-01-19T14:37:11.307Z,1.98
2024-01-19T14:39:40.799Z,2.28
2024-01-19T14:42:07.646Z,1.95
2024-01-19T14:44:34.350Z,1.75
2024-01-19T14:47:01.905Z,1.42
2024-01-19T14:49:33.948Z,1.85
2024-01-19T14:52:01.672Z,1.63
2024-01-19T14:54:31.292Z,1.88
2024-01-19T14:56:58.711Z,1.92
2024-01-19T14:59:25.317Z,1.95
2024-01-19T15:01:53.180Z,1.92
2024-01-19T15:04:20.038Z,1.70
2024-01-19T15:06:47.124Z,1.80
2024-01-19T15:09:13.782Z,1.63
2024-01-19T15:11:40.477Z,1.98
2024-01-19T15:14:07.209Z,1.75
2024-01-19T15:16:34.015Z,1.90
2024-01-19T15:19:01.336Z,1.85
2024-01-19T15:21:28.472Z,1.63
2024-01-19T15:23:55.419Z,1.90
2024-01-19T15:26:22.201Z,2.63
2024-01-19T15:28:49.342Z,2.70
2024-01-19T15:31:21.360Z,2.45
2024-01-19T15:33:48.258Z,1.77
2024-01-19T15:36:15.037Z,2.00
2024-01-19T15:38:41.724Z,1.55
2024-01-19T15:41:08.515Z,1.70
2024-01-19T15:43:36.285Z,1.90
2024-01-19T15:46:03.133Z,1.67
2024-01-19T15:48:29.810Z,1.60
2024-01-19T15:50:56.496Z,1.63
2024-01-19T15:53:24.013Z,2.10
2024-01-19T15:55:50.621Z,1.58
2024-01-19T15:58:17.497Z,1.80
2024-01-19T16:00:44.187Z,2.25
2024-01-19T16:03:13.025Z,2.42
2024-01-19T16:05:40.181Z,2.03
2024-01-19T16:08:07.180Z,2.30
2024-01-19T16:10:33.939Z,1.88
2024-01-19T16:13:00.724Z,2.20
2024-01-19T16:15:27.417Z,1.90
2024-01-19T16:17:54.238Z,1.85
2024-01-19T16:20:20.989Z,1.77
2024-01-19T16:22:47.819Z,1.95
2024-01-19T16:25:14.501Z,2.17
2024-01-19T16:27:41.151Z,2.15
2024-01-19T16:30:07.971Z,2.38
2024-01-19T16:32:34.625Z,2.30
2024-01-19T16:35:01.485Z,2.45
2024-01-19T16:37:28.382Z,3.05
2024-01-19T16:39:55.095Z,3.40
2024-01-19T16:42:21.764Z,3.35
2024-01-19T16:44:48.447Z,2.85
2024-01-19T16:47:15.147Z,2.50
2024-01-19T16:49:41.820Z,2.30
2024-01-19T16:52:08.683Z,3.08
2024-01-19T16:54:35.325Z,4.55
2024-01-19T16:57:06.825Z,2.83
2024-01-19T16:59:36.327Z,3.35
2024-01-19T17:02:03.085Z,3.28
2024-01-19T17:04:30.677Z,4.28
2024-01-19T17:06:57.394Z,3.78
2024-01-19T17:09:24.083Z,4.00
2024-01-19T17:11:51.493Z,4.50
2024-01-19T17:14:18.284Z,4.43
2024-01-19T17:16:45.578Z,4.68
2024-01-19T17:19:13.344Z,3.75
2024-01-19T17:21:41.411Z,4.50
2024-01-19T17:24:09.288Z,3.45
2024-01-19T17:26:40.420Z,3.58
2024-01-19T17:29:07.242Z,4.13
2024-01-19T17:31:34.761Z,3.60
2024-01-19T17:34:08.472Z,3.78
2024-01-19T17:36:37.819Z,3.92
2024-01-19T17:39:05.497Z,3.80
2024-01-19T17:41:32.438Z,3.92
2024-01-19T17:43:59.893Z,4.40
2024-01-19T17:46:27.346Z,3.72
2024-01-19T17:48:54.265Z,4.30
2024-01-19T17:51:22.290Z,3.53
2024-01-19T17:53:50.807Z,4.05
2024-01-19T17:56:17.644Z,3.83
2024-01-19T17:58:44.656Z,4.20
2024-01-19T18:01:11.425Z,4.30
2024-01-19T18:03:40.026Z,3.90
2024-01-19T18:06:08.149Z,4.45
2024-01-19T18:08:35.424Z,6.85
2024-01-19T18:11:03.575Z,4.30
2024-01-19T18:13:30.877Z,4.32
2024-01-19T18:15:58.311Z,5.20
2024-01-19T18:18:31.523Z,5.50
2024-01-19T18:21:02.449Z,5.50
2024-01-19T18:23:29.201Z,5.15
2024-01-19T18:25:56.098Z,5.25
2024-01-19T18:28:23.839Z,5.53
2024-01-19T18:30:54.105Z,5.85
2024-01-19T18:33:21.278Z,6.50
2024-01-19T18:35:48.487Z,6.78
2024-01-19T18:38:15.453Z,6.03
2024-01-19T18:40:42.398Z,5.75
2024-01-19T18:43:09.089Z,4.55
2024-01-19T18:45:35.890Z,4.22
2024-01-19T18:48:05.501Z,4.15
2024-01-19T18:50:32.958Z,3.88
2024-01-19T18:53:00.409Z,4.38
2024-01-19T18:55:27.708Z,3.13
2024-01-19T18:57:54.630Z,4.13
2024-01-19T19:00:22.205Z,3.58
2024-01-19T19:02:50.082Z,4.20
2024-01-19T19:05:16.902Z,3.72
2024-01-19T19:07:44.685Z,3.67
2024-01-19T19:10:11.552Z,3.65
2024-01-19T19:12:38.724Z,3.55
2024-01-19T19:15:07.673Z,3.88
2024-01-19T19:17:36.287Z,3.50
2024-01-19T19:20:03.689Z,4.85
2024-01-19T19:22:30.402Z,5.38
2024-01-19T19:24:57.117Z,3.55
2024-01-19T19:27:23.787Z,4.38
2024-01-19T19:29:51.004Z,4.15
2024-01-19T19:32:17.789Z,4.00
2024-01-19T19:34:46.506Z,4.03
2024-01-19T19:37:13.333Z,3.83
2024-01-19T19:39:40.023Z,3.83
2024-01-19T19:42:06.868Z,4.95
2024-01-19T19:44:34.876Z,4.88
2024-01-19T19:47:01.669Z,5.13
2024-01-19T19:49:28.383Z,4.25
2024-01-19T19:51:56.551Z,4.22
2024-01-19T19:54:24.191Z,5.10
2024-01-19T19:56:50.882Z,4.55
2024-01-19T19:59:17.652Z,4.97
2024-01-19T20:01:48.182Z,5.30
2024-01-19T20:04:15.969Z,4.35
2024-01-19T20:06:42.790Z,4.55
2024-01-19T20:09:09.792Z,5.53
2024-01-19T20:11:37.722Z,5.25
2024-01-19T20:14:05.005Z,5.63
2024-01-19T20:16:31.998Z,5.45
2024-01-19T20:18:59.310Z,5.20
2024-01-19T20:21:26.364Z,5.50
2024-01-19T20:23:53.546Z,5.20
2024-01-19T20:26:20.863Z,5.50
2024-01-19T20:28:48.378Z,5.82
2024-01-19T20:31:15.237Z,5.97
2024-01-19T20:33:42.814Z,6.90
2024-01-19T20:36:09.828Z,6.05
2024-01-19T20:38:37.458Z,6.60
2024-01-19T20:41:04.521Z,6.03
2024-01-19T20:43:31.452Z,5.90
2024-01-19T20:45:58.184Z,6.47
2024-01-19T20:48:24.956Z,6.05
2024-01-19T20:50:51.706Z,5.10
2024-01-19T20:53:18.452Z,5.85
2024-01-19T20:55:47.063Z,5.65
2024-01-19T20:58:13.968Z,5.30
2024-01-19T21:00:41.452Z,5.72
2024-01-19T21:03:10.451Z,5.18
2024-01-19T21:05:38.173Z,5.00
2024-01-19T21:08:05.702Z,5.82
2024-01-19T21:10:33.465Z,6.80
2024-01-19T21:13:00.263Z,5.22
2024-01-19T21:15:28.067Z,4.57
2024-01-19T21:17:55.265Z,5.68
2024-01-19T21:20:24.137Z,5.63
2024-01-19T21:22:52.865Z,5.60
2024-01-19T21:25:21.697Z,5.18
2024-01-19T21:27:48.622Z,5.05
2024-01-19T21:30:15.429Z,5.28
2024-01-19T21:32:42.189Z,5.35
2024-01-19T21:35:10.020Z,5.18
2024-01-19T21:37:36.920Z,5.43
2024-01-19T21:40:05.627Z,5.70
2024-01-19T21:42:32.754Z,5.55
2024-01-19T21:45:00.154Z,4.63
2024-01-19T21:47:26.991Z,4.90
2024-01-19T21:49:54.340Z,5.47
2024-01-19T21:52:22.613Z,4.63
2024-01-19T21:54:50.240Z,5.22
2024-01-19T21:57:17.100Z,5.75
2024-01-19T21:59:43.953Z,5.53
2024-01-19T22:02:11.290Z,4.97
2024-01-19T22:04:38.654Z,5.50
2024-01-19T22:07:06.813Z,5.57
2024-01-19T22:09:33.858Z,5.72
2024-01-19T22:12:00.744Z,5.38
2024-01-19T22:14:28.267Z,4.78
2024-01-19T22:16:55.269Z,5.18
2024-01-19T22:19:22.737Z,5.95
2024-01-19T22:21:50.379Z,5.57
2024-01-19T22:24:17.305Z,5.28
2024-01-19T22:26:45.157Z,5.15
2024-01-19T22:29:13.100Z,5.47
2024-01-19T22:31:40.433Z,5.90
2024-01-19T22:34:09.404Z,5.28
2024-01-19T22:36:38.638Z,5.18
2024-01-19T22:39:05.443Z,5.50
2024-01-19T22:41:32.645Z,4.25
2024-01-19T22:44:00.154Z,5.32
2024-01-19T22:46:27.774Z,4.95
2024-01-19T22:48:54.787Z,4.50
2024-01-19T22:51:21.874Z,5.70
2024-01-19T22:53:50.264Z,4.78
2024-01-19T22:56:17.155Z,3.88
2024-01-19T22:58:44.307Z,3.70
2024-01-19T23:01:11.474Z,4.00
2024-01-19T23:03:38.333Z,4.07
2024-01-19T23:06:05.483Z,3.78
2024-01-19T23:08:32.205Z,3.35
2024-01-19T23:10:59.354Z,3.05
2024-01-19T23:13:26.368Z,3.08
2024-01-19T23:15:53.537Z,4.03
2024-01-19T23:18:21.177Z,3.53
2024-01-19T23:20:48.150Z,3.55
2024-01-19T23:23:15.270Z,4.13
2024-01-19T23:25:42.391Z,3.83
2024-01-19T23:28:10.645Z,3.13
2024-01-19T23:30:38.497Z,4.25
2024-01-19T23:33:05.973Z,3.22
2024-01-19T23:35:33.146Z,3.72
2024-01-19T23:38:00.361Z,3.55
2024-01-19T23:40:27.751Z,3.60
2024-01-19T23:42:56.422Z,3.90
2024-01-19T23:45:26.101Z,3.75
2024-01-19T23:47:55.267Z,3.90
2024-01-19T23:50:22.904Z,3.30
2024-01-19T23:52:50.100Z,3.47
2024-01-19T23:55:17.630Z,3.83
2024-01-19T23:57:45.478Z,4.13
